sensor_id;sensor_type;location;lat;lon;timestamp;P1;durP1;ratioP1;P2;durP2;ratioP2
43226;SDS011;28839;52.404;9.808;2024-03-08T00:04:57;36.53;;;19.27;;
43226;SDS011;28839;52.404;9.808;2024-03-08T00:11:52;30.83;;;17.40;;
43226;SDS011;28839;52.404;9.808;2024-03-08T00:18:46;34.88;;;18.00;;
43226;SDS011;28839;52.404;9.808;2024-03-08T00:25:41;37.15;;;17.98;;
43226;SDS011;28839;52.404;9.808;2024-03-08T00:32:36;34.25;;;18.00;;
43226;SDS011;28839;52.404;9.808;2024-03-08T00:39:30;31.77;;;17.50;;
43226;SDS011;28839;52.404;9.808;2024-03-08T00:46:23;36.40;;;18.73;;
43226;SDS011;28839;52.404;9.808;2024-03-08T00:53:19;39.53;;;19.30;;
43226;SDS011;28839;52.404;9.808;2024-03-08T01:00:13;35.53;;;17.60;;
43226;SDS011;28839;52.404;9.808;2024-03-08T01:07:07;30.27;;;18.03;;
43226;SDS011;28839;52.404;9.808;2024-03-08T01:14:02;39.38;;;19.73;;
43226;SDS011;28839;52.404;9.808;2024-03-08T01:20:56;32.70;;;17.85;;
43226;SDS011;28839;52.404;9.808;2024-03-08T01:27:50;33.67;;;17.95;;
43226;SDS011;28839;52.404;9.808;2024-03-08T01:34:47;32.35;;;19.67;;
43226;SDS011;28839;52.404;9.808;2024-03-08T01:41:40;33.65;;;18.33;;
43226;SDS011;28839;52.404;9.808;2024-03-08T01:48:34;33.85;;;18.73;;
43226;SDS011;28839;52.404;9.808;2024-03-08T01:55:29;34.63;;;19.15;;
43226;SDS011;28839;52.404;9.808;2024-03-08T02:02:23;37.22;;;20.37;;
43226;SDS011;28839;52.404;9.808;2024-03-08T02:09:19;35.08;;;19.55;;
43226;SDS011;28839;52.404;9.808;2024-03-08T02:16:19;38.53;;;19.10;;
43226;SDS011;28839;52.404;9.808;2024-03-08T02:23:15;33.50;;;18.12;;
43226;SDS011;28839;52.404;9.808;2024-03-08T02:30:10;31.15;;;18.12;;
43226;SDS011;28839;52.404;9.808;2024-03-08T02:37:05;35.85;;;19.87;;
43226;SDS011;28839;52.404;9.808;2024-03-08T02:50:56;38.03;;;20.42;;
43226;SDS011;28839;52.404;9.808;2024-03-08T02:57:50;33.50;;;18.97;;
43226;SDS011;28839;52.404;9.808;2024-03-08T03:04:45;37.73;;;19.37;;
43226;SDS011;28839;52.404;9.808;2024-03-08T03:11:39;36.47;;;20.15;;
43226;SDS011;28839;52.404;9.808;2024-03-08T03:18:32;38.90;;;20.40;;
43226;SDS011;28839;52.404;9.808;2024-03-08T03:25:28;33.88;;;19.52;;
43226;SDS011;28839;52.404;9.808;2024-03-08T03:32:26;39.28;;;20.83;;
43226;SDS011;28839;52.404;9.808;2024-03-08T03:39:20;42.22;;;22.58;;
43226;SDS011;28839;52.404;9.808;2024-03-08T03:46:16;31.83;;;16.50;;
43226;SDS011;28839;52.404;9.808;2024-03-08T03:53:09;40.20;;;20.17;;
43226;SDS011;28839;52.404;9.808;2024-03-08T04:00:05;39.75;;;21.02;;
43226;SDS011;28839;52.404;9.808;2024-03-08T04:07:03;40.63;;;22.05;;
43226;SDS011;28839;52.404;9.808;2024-03-08T04:13:57;42.67;;;21.05;;
43226;SDS011;28839;52.404;9.808;2024-03-08T04:20:50;42.35;;;21.37;;
43226;SDS011;28839;52.404;9.808;2024-03-08T04:27:46;41.03;;;22.67;;
43226;SDS011;28839;52.404;9.808;2024-03-08T04:34:40;45.67;;;23.00;;
43226;SDS011;28839;52.404;9.808;2024-03-08T04:41:34;46.60;;;23.38;;
43226;SDS011;28839;52.404;9.808;2024-03-08T04:55:24;46.08;;;23.40;;
43226;SDS011;28839;52.404;9.808;2024-03-08T05:02:19;42.80;;;21.98;;
43226;SDS011;28839;52.404;9.808;2024-03-08T05:09:16;44.75;;;23.23;;
43226;SDS011;28839;52.404;9.808;2024-03-08T05:16:11;43.92;;;23.12;;
43226;SDS011;28839;52.404;9.808;2024-03-08T05:23:07;35.13;;;19.25;;
43226;SDS011;28839;52.404;9.808;2024-03-08T05:30:03;42.05;;;20.25;;
43226;SDS011;28839;52.404;9.808;2024-03-08T05:36:57;49.53;;;25.60;;
43226;SDS011;28839;52.404;9.808;2024-03-08T05:43:52;44.65;;;23.10;;
43226;SDS011;28839;52.404;9.808;2024-03-08T05:50:47;48.78;;;23.85;;
43226;SDS011;28839;52.404;9.808;2024-03-08T05:57:41;49.70;;;24.80;;
43226;SDS011;28839;52.404;9.808;2024-03-08T06:04:34;35.20;;;18.87;;
43226;SDS011;28839;52.404;9.808;2024-03-08T06:11:29;41.20;;;20.65;;
43226;SDS011;28839;52.404;9.808;2024-03-08T06:18:23;48.35;;;23.98;;
43226;SDS011;28839;52.404;9.808;2024-03-08T06:25:17;43.50;;;21.95;;
43226;SDS011;28839;52.404;9.808;2024-03-08T06:32:13;29.48;;;17.12;;
43226;SDS011;28839;52.404;9.808;2024-03-08T06:39:07;41.80;;;22.62;;
43226;SDS011;28839;52.404;9.808;2024-03-08T06:46:02;43.93;;;25.37;;
43226;SDS011;28839;52.404;9.808;2024-03-08T06:52:57;38.63;;;21.27;;
43226;SDS011;28839;52.404;9.808;2024-03-08T06:59:51;44.50;;;22.37;;
43226;SDS011;28839;52.404;9.808;2024-03-08T07:13:43;42.38;;;22.25;;
43226;SDS011;28839;52.404;9.808;2024-03-08T07:20:37;30.48;;;16.20;;
43226;SDS011;28839;52.404;9.808;2024-03-08T07:27:30;40.55;;;22.35;;
43226;SDS011;28839;52.404;9.808;2024-03-08T07:34:27;37.88;;;22.30;;
43226;SDS011;28839;52.404;9.808;2024-03-08T07:41:23;46.08;;;22.92;;
43226;SDS011;28839;52.404;9.808;2024-03-08T07:48:17;41.00;;;23.77;;
43226;SDS011;28839;52.404;9.808;2024-03-08T07:55:13;39.73;;;22.07;;
43226;SDS011;28839;52.404;9.808;2024-03-08T08:02:07;40.78;;;22.55;;
43226;SDS011;28839;52.404;9.808;2024-03-08T08:09:00;38.20;;;18.12;;
43226;SDS011;28839;52.404;9.808;2024-03-08T08:15:56;37.97;;;21.93;;
43226;SDS011;28839;52.404;9.808;2024-03-08T08:22:49;44.20;;;22.92;;
43226;SDS011;28839;52.404;9.808;2024-03-08T08:29:43;38.72;;;23.92;;
43226;SDS011;28839;52.404;9.808;2024-03-08T08:36:39;43.03;;;25.65;;
43226;SDS011;28839;52.404;9.808;2024-03-08T08:50:26;40.47;;;24.50;;
43226;SDS011;28839;52.404;9.808;2024-03-08T08:57:22;41.92;;;24.60;;
43226;SDS011;28839;52.404;9.808;2024-03-08T09:04:16;27.90;;;15.73;;
43226;SDS011;28839;52.404;9.808;2024-03-08T09:11:09;36.30;;;20.23;;
43226;SDS011;28839;52.404;9.808;2024-03-08T09:18:05;35.70;;;22.40;;
43226;SDS011;28839;52.404;9.808;2024-03-08T09:24:59;35.95;;;23.23;;
43226;SDS011;28839;52.404;9.808;2024-03-08T09:31:53;38.72;;;24.90;;
43226;SDS011;28839;52.404;9.808;2024-03-08T09:38:48;32.50;;;20.70;;
43226;SDS011;28839;52.404;9.808;2024-03-08T09:45:42;34.20;;;23.10;;
43226;SDS011;28839;52.404;9.808;2024-03-08T09:52:38;34.47;;;19.65;;
43226;SDS011;28839;52.404;9.808;2024-03-08T09:59:33;26.62;;;16.83;;
43226;SDS011;28839;52.404;9.808;2024-03-08T10:06:40;38.03;;;24.33;;
43226;SDS011;28839;52.404;9.808;2024-03-08T10:13:33;35.15;;;22.23;;
43226;SDS011;28839;52.404;9.808;2024-03-08T10:20:30;36.97;;;23.12;;
43226;SDS011;28839;52.404;9.808;2024-03-08T10:27:25;34.25;;;21.58;;
43226;SDS011;28839;52.404;9.808;2024-03-08T10:34:19;33.08;;;21.10;;
43226;SDS011;28839;52.404;9.808;2024-03-08T10:41:16;33.65;;;22.00;;
43226;SDS011;28839;52.404;9.808;2024-03-08T10:48:15;30.67;;;17.62;;
43226;SDS011;28839;52.404;9.808;2024-03-08T10:55:20;33.67;;;22.52;;
43226;SDS011;28839;52.404;9.808;2024-03-08T11:02:15;32.22;;;22.60;;
43226;SDS011;28839;52.404;9.808;2024-03-08T11:16:36;31.42;;;23.23;;
43226;SDS011;28839;52.404;9.808;2024-03-08T11:23:34;39.38;;;25.05;;
43226;SDS011;28839;52.404;9.808;2024-03-08T11:30:28;38.67;;;22.42;;
43226;SDS011;28839;52.404;9.808;2024-03-08T11:37:23;37.55;;;23.33;;
43226;SDS011;28839;52.404;9.808;2024-03-08T11:44:18;37.33;;;25.60;;
43226;SDS011;28839;52.404;9.808;2024-03-08T11:51:12;40.55;;;27.48;;
43226;SDS011;28839;52.404;9.808;2024-03-08T11:58:07;33.83;;;21.77;;
43226;SDS011;28839;52.404;9.808;2024-03-08T12:05:05;36.42;;;24.00;;
43226;SDS011;28839;52.404;9.808;2024-03-08T12:12:01;34.97;;;20.75;;
43226;SDS011;28839;52.404;9.808;2024-03-08T12:25:51;37.63;;;24.45;;
43226;SDS011;28839;52.404;9.808;2024-03-08T12:32:48;34.50;;;20.95;;
43226;SDS011;28839;52.404;9.808;2024-03-08T12:39:45;24.45;;;14.43;;
43226;SDS011;28839;52.404;9.808;2024-03-08T12:46:40;34.28;;;20.85;;
43226;SDS011;28839;52.404;9.808;2024-03-08T12:53:36;39.42;;;24.83;;
43226;SDS011;28839;52.404;9.808;2024-03-08T13:00:30;38.58;;;24.05;;
43226;SDS011;28839;52.404;9.808;2024-03-08T13:07:25;34.47;;;24.05;;
43226;SDS011;28839;52.404;9.808;2024-03-08T13:14:19;26.48;;;17.15;;
43226;SDS011;28839;52.404;9.808;2024-03-08T13:21:12;30.67;;;20.30;;
43226;SDS011;28839;52.404;9.808;2024-03-08T13:28:07;27.65;;;15.23;;
43226;SDS011;28839;52.404;9.808;2024-03-08T13:35:03;23.77;;;15.32;;
43226;SDS011;28839;52.404;9.808;2024-03-08T13:42:04;27.23;;;15.20;;
43226;SDS011;28839;52.404;9.808;2024-03-08T13:49:04;29.98;;;21.20;;
43226;SDS011;28839;52.404;9.808;2024-03-08T13:56:00;24.45;;;14.52;;
43226;SDS011;28839;52.404;9.808;2024-03-08T14:02:54;17.92;;;11.68;;
43226;SDS011;28839;52.404;9.808;2024-03-08T14:09:49;32.53;;;20.30;;
43226;SDS011;28839;52.404;9.808;2024-03-08T14:16:44;29.12;;;20.08;;
43226;SDS011;28839;52.404;9.808;2024-03-08T14:23:41;27.52;;;19.02;;
43226;SDS011;28839;52.404;9.808;2024-03-08T14:30:36;23.90;;;14.77;;
43226;SDS011;28839;52.404;9.808;2024-03-08T14:37:33;25.52;;;17.30;;
43226;SDS011;28839;52.404;9.808;2024-03-08T14:44:26;27.33;;;18.23;;
43226;SDS011;28839;52.404;9.808;2024-03-08T14:51:22;23.67;;;13.85;;
43226;SDS011;28839;52.404;9.808;2024-03-08T14:58:18;27.48;;;18.65;;
43226;SDS011;28839;52.404;9.808;2024-03-08T15:05:13;25.27;;;18.67;;
43226;SDS011;28839;52.404;9.808;2024-03-08T15:12:14;24.25;;;14.50;;
43226;SDS011;28839;52.404;9.808;2024-03-08T15:19:09;25.83;;;16.67;;
43226;SDS011;28839;52.404;9.808;2024-03-08T15:26:04;28.17;;;18.87;;
43226;SDS011;28839;52.404;9.808;2024-03-08T15:33:00;29.05;;;20.55;;
43226;SDS011;28839;52.404;9.808;2024-03-08T15:39:55;33.08;;;18.25;;
43226;SDS011;28839;52.404;9.808;2024-03-08T15:46:49;25.80;;;17.40;;
43226;SDS011;28839;52.404;9.808;2024-03-08T15:53:44;28.10;;;17.87;;
43226;SDS011;28839;52.404;9.808;2024-03-08T16:00:44;28.67;;;18.42;;
43226;SDS011;28839;52.404;9.808;2024-03-08T16:07:40;27.27;;;17.33;;
43226;SDS011;28839;52.404;9.808;2024-03-08T16:14:37;23.05;;;15.02;;
43226;SDS011;28839;52.404;9.808;2024-03-08T16:21:31;22.37;;;13.80;;
43226;SDS011;28839;52.404;9.808;2024-03-08T16:28:25;25.27;;;15.60;;
43226;SDS011;28839;52.404;9.808;2024-03-08T16:35:21;25.12;;;15.25;;
43226;SDS011;28839;52.404;9.808;2024-03-08T16:42:15;23.38;;;14.65;;
43226;SDS011;28839;52.404;9.808;2024-03-08T16:49:12;22.50;;;13.85;;
43226;SDS011;28839;52.404;9.808;2024-03-08T16:56:08;27.80;;;17.02;;
43226;SDS011;28839;52.404;9.808;2024-03-08T17:03:04;27.73;;;17.83;;
43226;SDS011;28839;52.404;9.808;2024-03-08T17:09:59;29.92;;;15.00;;
43226;SDS011;28839;52.404;9.808;2024-03-08T17:16:56;23.95;;;16.25;;
43226;SDS011;28839;52.404;9.808;2024-03-08T17:23:51;25.98;;;17.25;;
43226;SDS011;28839;52.404;9.808;2024-03-08T17:30:48;29.30;;;18.90;;
43226;SDS011;28839;52.404;9.808;2024-03-08T17:37:44;28.35;;;18.62;;
43226;SDS011;28839;52.404;9.808;2024-03-08T17:44:39;28.75;;;17.12;;
43226;SDS011;28839;52.404;9.808;2024-03-08T17:51:34;34.42;;;21.65;;
43226;SDS011;28839;52.404;9.808;2024-03-08T17:58:29;31.77;;;19.62;;
43226;SDS011;28839;52.404;9.808;2024-03-08T18:05:24;35.00;;;20.37;;
43226;SDS011;28839;52.404;9.808;2024-03-08T18:12:22;35.35;;;21.52;;
43226;SDS011;28839;52.404;9.808;2024-03-08T18:19:17;33.85;;;18.30;;
43226;SDS011;28839;52.404;9.808;2024-03-08T18:26:11;37.30;;;18.00;;
43226;SDS011;28839;52.404;9.808;2024-03-08T18:33:05;35.90;;;21.48;;
43226;SDS011;28839;52.404;9.808;2024-03-08T18:40:01;32.22;;;17.80;;
43226;SDS011;28839;52.404;9.808;2024-03-08T18:46:59;28.80;;;17.37;;
43226;SDS011;28839;52.404;9.808;2024-03-08T18:53:53;32.05;;;20.00;;
43226;SDS011;28839;52.404;9.808;2024-03-08T19:00:48;31.23;;;19.12;;
43226;SDS011;28839;52.404;9.808;2024-03-08T19:07:43;32.45;;;18.35;;
43226;SDS011;28839;52.404;9.808;2024-03-08T19:21:33;25.95;;;16.60;;
43226;SDS011;28839;52.404;9.808;2024-03-08T19:35:21;28.95;;;16.35;;
43226;SDS011;28839;52.404;9.808;2024-03-08T19:42:17;22.98;;;14.75;;
43226;SDS011;28839;52.404;9.808;2024-03-08T19:49:12;27.25;;;15.23;;
43226;SDS011;28839;52.404;9.808;2024-03-08T19:56:08;25.95;;;14.75;;
43226;SDS011;28839;52.404;9.808;2024-03-08T20:03:04;25.88;;;15.85;;
43226;SDS011;28839;52.404;9.808;2024-03-08T20:09:59;28.77;;;16.75;;
43226;SDS011;28839;52.404;9.808;2024-03-08T20:23:50;25.43;;;14.87;;
43226;SDS011;28839;52.404;9.808;2024-03-08T20:30:44;23.52;;;15.00;;
43226;SDS011;28839;52.404;9.808;2024-03-08T20:37:39;26.37;;;13.67;;
43226;SDS011;28839;52.404;9.808;2024-03-08T20:44:35;25.02;;;14.82;;
43226;SDS011;28839;52.404;9.808;2024-03-08T20:51:29;19.17;;;9.68;;
43226;SDS011;28839;52.404;9.808;2024-03-08T20:58:23;23.87;;;14.48;;
43226;SDS011;28839;52.404;9.808;2024-03-08T21:05:19;23.77;;;12.80;;
43226;SDS011;28839;52.404;9.808;2024-03-08T21:12:15;24.40;;;14.57;;
43226;SDS011;28839;52.404;9.808;2024-03-08T21:19:12;26.20;;;15.18;;
43226;SDS011;28839;52.404;9.808;2024-03-08T21:26:07;24.75;;;13.52;;
43226;SDS011;28839;52.404;9.808;2024-03-08T21:33:06;26.95;;;15.15;;
43226;SDS011;28839;52.404;9.808;2024-03-08T21:40:03;24.10;;;14.95;;
43226;SDS011;28839;52.404;9.808;2024-03-08T21:47:03;30.77;;;15.93;;
43226;SDS011;28839;52.404;9.808;2024-03-08T21:53:57;28.60;;;16.48;;
43226;SDS011;28839;52.404;9.808;2024-03-08T22:00:51;26.95;;;16.15;;
43226;SDS011;28839;52.404;9.808;2024-03-08T22:07:46;33.38;;;19.40;;
43226;SDS011;28839;52.404;9.808;2024-03-08T22:14:41;31.65;;;16.75;;
43226;SDS011;28839;52.404;9.808;2024-03-08T22:21:35;15.90;;;8.90;;
43226;SDS011;28839;52.404;9.808;2024-03-08T22:28:30;29.17;;;16.85;;
43226;SDS011;28839;52.404;9.808;2024-03-08T22:35:24;30.30;;;17.30;;
43226;SDS011;28839;52.404;9.808;2024-03-08T22:42:17;39.63;;;21.50;;
43226;SDS011;28839;52.404;9.808;2024-03-08T22:49:13;34.33;;;20.20;;
43226;SDS011;28839;52.404;9.808;2024-03-08T22:56:06;34.15;;;17.87;;
43226;SDS011;28839;52.404;9.808;2024-03-08T23:03:00;39.42;;;21.75;;
43226;SDS011;28839;52.404;9.808;2024-03-08T23:09:55;37.28;;;19.73;;
43226;SDS011;28839;52.404;9.808;2024-03-08T23:16:50;42.13;;;22.52;;
43226;SDS011;28839;52.404;9.808;2024-03-08T23:23:46;46.92;;;22.20;;
43226;SDS011;28839;52.404;9.808;2024-03-08T23:30:43;45.42;;;25.95;;
43226;SDS011;28839;52.404;9.808;2024-03-08T23:37:37;50.70;;;27.92;;
43226;SDS011;28839;52.404;9.808;2024-03-08T23:44:34;43.42;;;26.00;;
43226;SDS011;28839;52.404;9.808;2024-03-08T23:51:30;48.43;;;26.83;;
